METAR Data
IDs: Format: Raw Decoded Include TAF

Data at: 1742 UTC 20 Jan 2019

KF00 201735Z AUTO 00000KT 10SM CLR 00/M07 A3041 RMK AO2 T00011065
KF00 201715Z AUTO 35004KT 10SM CLR M01/M06 A3043 RMK AO2 T10051062
KF00 201655Z AUTO 34007KT 10SM CLR M01/M07 A3043 RMK AO2 T10121069
KF00 201635Z AUTO 32004KT 10SM CLR M02/M07 A3042 RMK AO2 T10181068
KF00 201615Z AUTO 33006KT 10SM CLR M02/M07 A3041 RMK AO2 T10241071
KF00 201555Z AUTO 32005KT 10SM CLR M03/M07 A3040 RMK AO2 T10271072
KF00 201535Z AUTO 32005KT 10SM CLR M03/M07 A3041 RMK AO2 T10311073
KF00 201515Z AUTO 34003KT 10SM CLR M04/M08 A3039 RMK AO2 T10381078
KF00 201455Z AUTO 34004KT 10SM CLR M04/M08 A3039 RMK AO2 T10441079
KF00 201435Z AUTO 32007KT 10SM CLR M05/M08 A3039 RMK AO2 T10491080
KF00 201415Z AUTO 31003KT 10SM CLR M05/M08 A3039 RMK AO2 T10531078
KF00 201355Z AUTO 32007KT 10SM CLR M06/M08 A3040 RMK AO2 T10591079
KF00 201335Z AUTO 30004KT 10SM CLR M07/M08 A3038 RMK AO2 T10681080
KF00 201315Z AUTO 00000KT 10SM CLR M06/M08 A3036 RMK AO2 T10641082
KF00 201255Z AUTO 31004KT 10SM CLR M06/M08 A3038 RMK AO2 T10621081
KF00 201235Z AUTO 33004KT 10SM CLR M06/M08 A3037 RMK AO2 T10621081
KF00 201215Z AUTO 34005KT 10SM CLR M06/M08 A3037 RMK AO2 T10611079
KF00 201155Z AUTO 34004KT 10SM CLR M06/M08 A3035 RMK AO2 T10621081 11039 21062
KF00 201135Z AUTO 33005KT 10SM CLR M06/M08 A3035 RMK AO2 T10601079
KF00 201115Z AUTO 30007KT 10SM CLR M06/M08 A3035 RMK AO2 T10591078
KF00 201055Z AUTO 36004KT 10SM CLR M06/M08 A3033 RMK AO2 T10581079
KF00 201035Z AUTO 33006KT 10SM CLR M06/M08 A3035 RMK AO2 T10561078
KF00 201015Z AUTO 33006KT 10SM CLR M05/M08 A3036 RMK AO2 T10541077
KF00 200955Z AUTO 32006KT 10SM CLR M05/M08 A3037 RMK AO2 T10521077
KF00 200935Z AUTO 33005KT 10SM CLR M05/M08 A3038 RMK AO2 T10511077
KF00 200915Z AUTO 34008KT 10SM CLR M05/M08 A3037 RMK AO2 T10491077
KF00 200855Z AUTO 33009KT 10SM CLR M05/M08 A3038 RMK AO2 T10481076
KF00 200835Z AUTO 33008KT 10SM CLR M05/M08 A3036 RMK AO2 T10471076
KF00 200815Z AUTO 33009G15KT 10SM CLR M05/M08 A3037 RMK AO2 T10471076
KF00 200755Z AUTO 34008KT 10SM CLR M05/M08 A3038 RMK AO2 T10461075
KF00 200735Z AUTO 33007KT 10SM CLR M05/M08 A3038 RMK AO2 T10451076
KF00 200715Z AUTO 33006KT 10SM CLR M04/M08 A3037 RMK AO2 T10451076
KF00 200655Z AUTO 34007KT 10SM CLR M04/M08 A3037 RMK AO2 T10431076
KF00 200635Z AUTO 34006KT 10SM CLR M04/M08 A3037 RMK AO2 T10421076
KF00 200615Z AUTO 34007KT 10SM SCT027 M04/M08 A3037 RMK AO2 T10411077
KF00 200555Z AUTO 34011KT 10SM BKN027 M04/M08 A3038 RMK AO2 T10391077 11007 21040 401621040
KF00 200535Z AUTO 34009G16KT 10SM BKN027 M04/M08 A3038 RMK AO2 T10371077
KF00 200515Z AUTO 34010G18KT 10SM BKN027 M04/M08 A3037 RMK AO2 T10351078
KF00 200455Z AUTO 35012G17KT 10SM BKN027 M03/M08 A3036 RMK AO2 T10351078
KF00 200435Z AUTO 35011G24KT 10SM BKN027 M03/M08 A3033 RMK AO2 T10321080
KF00 200415Z AUTO 36009KT 10SM OVC027 M03/M07 A3032 RMK AO2 T10291074
KF00 200355Z AUTO 36009G18KT 10SM OVC027 M03/M07 A3032 RMK AO2 T10261072
KF00 200335Z AUTO 34011G17KT 10SM OVC029 M02/M07 A3032 RMK AO2 T10241070
KF00 200315Z AUTO 34010G18KT 10SM OVC029 M02/M07 A3032 RMK AO2 T10231069
KF00 200255Z AUTO 35013G20KT 10SM OVC029 M02/M07 A3033 RMK AO2 T10211069
KF00 200235Z AUTO 33013G20KT 10SM SCT031 M02/M06 A3033 RMK AO2 T10201063
KF00 200215Z AUTO 33012G19KT 10SM SCT033 M02/M06 A3032 RMK AO2 T10201061
KF00 200155Z AUTO 33009G18KT 10SM SCT033 M02/M06 A3031 RMK AO2 T10191062
KF00 200135Z AUTO 33011G16KT 10SM SCT031 M02/M06 A3031 RMK AO2 T10171059
KF00 200115Z AUTO 33011G18KT 10SM BKN031 M01/M05 A3030 RMK AO2 T10141055
KF00 200055Z AUTO 33010G16KT 10SM SCT031 M01/M05 A3029 RMK AO2 T10131054
KF00 200035Z AUTO 33009KT 10SM BKN031 M01/M05 A3027 RMK AO2 T10131050
KF00 200015Z AUTO 32008KT 10SM OVC031 M01/M05 A3026 RMK AO2 T10101048
KF00 192355Z AUTO 32009G17KT 10SM OVC031 M01/M05 A3024 RMK AO2 T10071049 11004 21015
KF00 192335Z AUTO 33010KT 10SM OVC031 M01/M05 A3023 RMK AO2 T10071049
KF00 192315Z AUTO 33010G21KT 10SM OVC029 M01/M05 A3022 RMK AO2 T10051051
KF00 192255Z AUTO 33013G18KT 10SM OVC029 M01/M05 A3021 RMK AO2 T10051047
KF00 192235Z AUTO 33014G21KT 10SM OVC029 00/M05 A3021 RMK AO2 T10051050
KF00 192215Z AUTO 33013G23KT 10SM OVC029 00/M05 A3020 RMK AO2 T10051048
KF00 192155Z AUTO 32015G25KT 10SM OVC027 M01/M05 A3019 RMK AO2 T10061048
KF00 192135Z AUTO 32013G22KT 10SM OVC027 M01/M05 A3018 RMK AO2 T10071048
KF00 192115Z AUTO 32017G25KT 10SM OVC027 M01/M05 A3017 RMK AO2 T10081051
KF00 192055Z AUTO 32016G27KT 10SM OVC027 M01/M05 A3015 RMK AO2 T10091051
KF00 192035Z AUTO 32015G25KT 10SM OVC024 M01/M05 A3014 RMK AO2 T10111052
KF00 192015Z AUTO 33018G25KT 10SM OVC024 M01/M05 A3014 RMK AO2 T10111049
KF00 191955Z AUTO 33011G27KT 10SM OVC024 M01/M05 A3014 RMK AO2 T10111050
KF00 191935Z AUTO 33018G28KT 10SM OVC022 M01/M05 A3014 RMK AO2 T10121050
KF00 191915Z AUTO 32016G28KT 10SM OVC024 M01/M05 A3014 RMK AO2 T10131051
KF00 191855Z AUTO 32016G26KT 10SM OVC027 M01/M05 A3014 RMK AO2 T10121051
KF00 191835Z AUTO 32015G24KT 10SM OVC025 M01/M05 A3014 RMK AO2 T10131050
KF00 191815Z AUTO 33020G27KT 10SM OVC023 M01/M05 A3014 RMK AO2 T10141051
KF00 191755Z AUTO 32016G24KT 10SM OVC023 M01/M05 A3013 RMK AO2 T10131046 11002 21016
KF00 191735Z AUTO 32019G27KT 10SM OVC021 M01/M04 A3014 RMK AO2 T10151044
KF00 191715Z AUTO 32019G28KT 10SM OVC021 M01/M05 A3012 RMK AO2 T10141046
KF00 191655Z AUTO 32014G26KT 10SM OVC023 M01/M04 A3010 RMK AO2 T10111039
KF00 191635Z AUTO 33019G26KT 10SM OVC023 M01/M04 A3009 RMK AO2 T10131044
KF00 191615Z AUTO 32018G29KT 10SM OVC021 M01/M04 A3009 RMK AO2 T10131039
KF00 191555Z AUTO 32015G26KT 10SM BKN021 OVC026 M01/M04 A3008 RMK AO2 T10141040
KF00 191535Z AUTO 31018G23KT 10SM BKN020 OVC026 M01/M03 A3007 RMK AO2 T10131034
KF00 191515Z AUTO 33022G29KT 10SM BKN020 OVC025 M01/M04 A3005 RMK AO2 T10101035
KF00 191455Z AUTO 32016G33KT 10SM BKN019 OVC025 M01/M04 A3004 RMK AO2 T10121036
KF00 191435Z AUTO 32015G27KT 10SM BKN017 OVC025 M01/M03 A3002 RMK AO2 T10101030
KF00 191415Z AUTO 32019G30KT 10SM -SN OVC017 M01/M03 A3000 RMK AO2 T10091027
KF00 191355Z AUTO 31020G27KT 10SM OVC019 M01/M02 A2999 RMK AO2 T10061022
KF00 191335Z AUTO 32020G29KT 10SM OVC019 00/M02 A2998 RMK AO2 T10041022
KF00 191315Z AUTO 32018G34KT 290V350 10SM OVC019 00/M02 A2996 RMK AO2 T10021019
KF00 191255Z AUTO 32019G28KT 7SM BR BKN013 OVC020 00/M01 A2994 RMK AO2 T10031012
KF00 191235Z AUTO 32017G29KT 2SM -SN BR BKN007 OVC011 00/ A2992 RMK AO2 T1005////
KF00 191215Z AUTO 31016G22KT 1 1/2SM -SN BR OVC005 00/ A2991 RMK AO2 T1004////
KF00 191155Z AUTO 32014G22KT 1SM -SN BR OVC003 00/ A2990 RMK AO2 P0001 T1004//// 10162 21004 60001 70001
KF00 191135Z AUTO 32014G24KT 3/4SM SN BR OVC003 00/00 A2988 RMK AO2 P0001 T1003////
KF00 191115Z AUTO 33021G36KT 1SM -SN BR BKN005 OVC011 00/00 A2986 RMK AO2 T00021004
KF00 191055Z AUTO 32014G31KT 3SM RA BR BKN011 OVC019 02/01 A2983 RMK AO2 T00210014
KF00 191035Z AUTO 32022G31KT 1 3/4SM -RA BR BKN013 OVC017 03/02 A2981 RMK AO2 T00270019
KF00 191015Z AUTO 32021G31KT 10SM -DZ OVC017 05/02 A2980 RMK AO2 T00460019
KF00 190955Z AUTO 32017G32KT 10SM -RA OVC015 05/03 A2978 RMK AO2 T00540027
KF00 190935Z AUTO 33019G31KT 10SM OVC013 07/04 A2976 RMK AO2 T00690044
KF00 190915Z AUTO 33014G25KT 10SM OVC011 09/07 A2973 RMK AO2 T00860068
KF00 190855Z AUTO 34013G26KT 10SM OVC013 10/08 A2971 RMK AO2 LTG DSNT E T00960080
KF00 190835Z AUTO 32013G24KT 10SM BKN013 OVC019 11/09 A2971 RMK AO2 LTG DSNT E T01090088
KF00 190815Z AUTO 33016G26KT 10SM SCT019 SCT023 13/09 A2967 RMK AO2 T01280092
KF00 190755Z AUTO 26012KT 10SM CLR 14/06 A2966 RMK AO2 T01370064
KF00 190735Z AUTO 26010KT 10SM CLR 15/06 A2965 RMK AO2 LTG DSNT E T01450063
KF00 190715Z AUTO 23007KT 10SM SCT090 SCT110 14/07 A2964 RMK AO2 LTG DSNT E T01410071
KF00 190655Z AUTO 23005KT 10SM SCT065 BKN090 OVC110 15/07 A2963 RMK AO2 LTG DSNT E SE AND W T01460073
KF00 190635Z AUTO 24009KT 10SM -RA SCT065 BKN090 OVC100 15/07 A2966 RMK AO2 LTG DSNT SE THRU NW T01490073
KF00 190615Z AUTO 25013G24KT 10SM -RA SCT065 OVC090 16/07 A2968 RMK AO2 LTG DSNT E T01600073
KF00 190555Z AUTO 24018G25KT 10SM OVC100 16/12 A2968 RMK AO2 T01600117 10167 20158 401670019